Latest Weather Observations for Inner Beacon

IDQ60801

Issued at 12:03 pm EST Monday 27 June 2016 (issued every 30 minutes, with the page automatically refreshed every 10 minutes)

About weather observations | Map of weather stations | Latest weather observations for QLD | Other Formats
Station Details ID: 040926 Name: INNER RECIPROCAL MARKER Lat: -27.26 Lon: 153.24 Height: 20.0 m
Data from the previous 72 hours. | See also: Recent months for locations in Queensland
Date/Time
EST
Temp
°C
App
Temp
°C
Dew
Point
°C
Rel
Hum
%
Delta-T
°C
Wind Press
QNH
hPa
Press
MSL
hPa
Rain since
9am
mm
Dir  Spd
km/h
Gust
km/h
Spd
kts
Gust
kts
27/12:00pm - - - - - NW 20 24 11 13 - - -
27/11:30am - - - - - NNW 13 15 7 8 - - -
27/11:00am - - - - - NW 17 19 9 10 - - -
27/10:30am - - - - - NW 17 19 9 10 - - -
27/10:00am - - - - - NW 17 20 9 11 - - -
27/09:30am - - - - - NW 17 24 9 13 - - -
27/09:00am - - - - - NW 11 13 6 7 - - -
27/08:30am - - - - - NW 9 13 5 7 - - -
27/08:00am - - - - - NW 9 11 5 6 - - -
27/07:30am - - - - - WSW 11 15 6 8 - - -
27/07:00am - - - - - WSW 11 13 6 7 - - -
27/06:30am - - - - - SSW 9 9 5 5 - - -
27/06:00am - - - - - SW 9 11 5 6 - - -
27/05:30am - - - - - SW 11 15 6 8 - - -
27/05:00am - - - - - SW 9 11 5 6 - - -
27/04:30am - - - - - WSW 11 15 6 8 - - -
27/04:00am - - - - - WNW 13 15 7 8 - - -
27/03:30am - - - - - NW 9 11 5 6 - - -
27/03:00am - - - - - NW 9 11 5 6 - - -
27/02:30am - - - - - N 13 15 7 8 - - -
27/02:00am - - - - - NNE 13 17 7 9 - - -
27/01:30am - - - - - NW 4 4 2 2 - - -
27/01:00am - - - - - SW 6 9 3 5 - - -
27/12:30am - - - - - WSW 9 9 5 5 - - -
27/12:00am - - - - - SW 13 17 7 9 - - -
 
Date/Time
EST
Temp
°C
App
Temp
°C
Dew
Point
°C
Rel
Hum
%
Delta-T
°C
Wind Press
QNH
hPa
Press
MSL
hPa
Rain since
9am
mm
Dir  Spd
km/h
Gust
km/h
Spd
kts
Gust
kts
26/11:30pm - - - - - WSW 9 11 5 6 - - -
26/11:00pm - - - - - WSW 9 11 5 6 - - -
26/10:30pm - - - - - NNW 2 4 1 2 - - -
26/10:00pm - - - - - NNW 4 6 2 3 - - -
26/09:30pm - - - - - NNE 4 6 2 3 - - -
26/09:00pm - - - - - NE 4 4 2 2 - - -
26/08:30pm - - - - - ENE 2 6 1 3 - - -
26/08:00pm - - - - - NE 4 6 2 3 - - -
26/07:30pm - - - - - ENE 6 6 3 3 - - -
26/07:00pm - - - - - E 4 6 2 3 - - -
26/06:30pm - - - - - E 6 7 3 4 - - -
26/06:00pm - - - - - E 7 9 4 5 - - -
26/05:30pm - - - - - E 6 9 3 5 - - -
26/05:00pm - - - - - ESE 6 7 3 4 - - -
26/04:30pm - - - - - SE 6 9 3 5 - - -
26/04:00pm - - - - - ESE 6 7 3 4 - - -
26/03:30pm - - - - - ESE 6 6 3 3 - - -
26/03:00pm - - - - - CALM 0 4 0 2 - - -
26/02:30pm - - - - - CALM 0 0 0 0 - - -
26/02:00pm - - - - - CALM 0 0 0 0 - - -
26/01:30pm - - - - - CALM 0 2 0 1 - - -
26/01:00pm - - - - - SW 6 7 3 4 - - -
26/12:30pm - - - - - SW 6 7 3 4 - - -
26/12:00pm - - - - - SSW 9 13 5 7 - - -
26/11:30am - - - - - SSW 9 13 5 7 - - -
26/11:00am - - - - - SSW 11 15 6 8 - - -
26/10:30am - - - - - SSW 11 13 6 7 - - -
26/10:00am - - - - - SSW 11 13 6 7 - - -
26/09:30am - - - - - SW 11 13 6 7 - - -
26/09:00am - - - - - SW 9 13 5 7 - - -
26/08:30am - - - - - SW 11 15 6 8 - - -
26/08:00am - - - - - WSW 13 15 7 8 - - -
26/07:30am - - - - - SW 15 19 8 10 - - -
26/07:00am - - - - - SW 17 19 9 10 - - -
26/06:30am - - - - - SW 13 15 7 8 - - -
26/06:00am - - - - - SSW 13 15 7 8 - - -
26/05:30am - - - - - SW 13 15 7 8 - - -
26/05:00am - - - - - SW 13 17 7 9 - - -
26/04:30am - - - - - SW 13 17 7 9 - - -
26/04:00am - - - - - SW 13 15 7 8 - - -
26/03:30am - - - - - WSW 15 17 8 9 - - -
26/03:00am - - - - - WSW 15 17 8 9 - - -
26/02:30am - - - - - WSW 15 20 8 11 - - -
26/02:00am - - - - - WSW 17 22 9 12 - - -
26/01:30am - - - - - WSW 17 20 9 11 - - -
26/01:00am - - - - - WSW 19 20 10 11 - - -
26/12:30am - - - - - WSW 20 24 11 13 - - -
26/12:00am - - - - - SW 20 22 11 12 - - -
 
Date/Time
EST
Temp
°C
App
Temp
°C
Dew
Point
°C
Rel
Hum
%
Delta-T
°C
Wind Press
QNH
hPa
Press
MSL
hPa
Rain since
9am
mm
Dir  Spd
km/h
Gust
km/h
Spd
kts
Gust
kts
25/11:30pm - - - - - SW 17 20 9 11 - - -
25/11:00pm - - - - - SW 15 19 8 10 - - -
25/10:30pm - - - - - SW 19 22 10 12 - - -
25/10:00pm - - - - - WSW 22 26 12 14 - - -
25/09:30pm - - - - - WSW 22 26 12 14 - - -
25/09:00pm - - - - - WSW 20 24 11 13 - - -
25/08:30pm - - - - - W 19 24 10 13 - - -
25/08:00pm - - - - - W 17 20 9 11 - - -
25/07:30pm - - - - - W 15 19 8 10 - - -
25/07:00pm - - - - - W 15 17 8 9 - - -
25/06:30pm - - - - - W 15 20 8 11 - - -
25/06:00pm - - - - - WSW 17 20 9 11 - - -
25/05:30pm - - - - - WSW 13 17 7 9 - - -
25/05:00pm - - - - - WSW 15 19 8 10 - - -
25/04:30pm - - - - - SW 15 19 8 10 - - -
25/04:00pm - - - - - WSW 17 20 9 11 - - -
25/03:30pm - - - - - WSW 11 15 6 8 - - -
25/03:00pm - - - - - SW 13 17 7 9 - - -
25/02:30pm - - - - - SW 15 20 8 11 - - -
25/02:00pm - - - - - WSW 15 20 8 11 - - -
25/01:30pm - - - - - WSW 17 22 9 12 - - -
25/01:00pm - - - - - W 17 22 9 12 - - -
25/12:30pm - - - - - WSW 17 24 9 13 - - -
25/12:00pm - - - - - WSW 17 24 9 13 - - -
25/11:30am - - - - - WSW 17 24 9 13 - - -
25/11:00am - - - - - W 19 24 10 13 - - -
25/10:30am - - - - - WSW 24 30 13 16 - - -
25/10:00am - - - - - WSW 24 30 13 16 - - -
25/09:30am - - - - - WSW 26 32 14 17 - - -
25/09:00am - - - - - WSW 30 33 16 18 - - -
25/08:30am - - - - - SW 26 30 14 16 - - -
25/08:00am - - - - - SW 28 32 15 17 - - -
25/07:30am - - - - - WSW 26 32 14 17 - - -
25/07:00am - - - - - WSW 26 32 14 17 - - -
25/06:30am - - - - - WSW 30 35 16 19 - - -
25/06:00am - - - - - WSW 26 32 14 17 - - -
25/05:30am - - - - - WSW 30 35 16 19 - - -
25/05:00am - - - - - WSW 30 37 16 20 - - -
25/04:30am - - - - - WSW 28 35 15 19 - - -
25/04:00am - - - - - WSW 28 35 15 19 - - -
25/03:30am - - - - - WSW 35 44 19 24 - - -
25/03:00am - - - - - SW 32 39 17 21 - - -
25/02:30am - - - - - SW 48 56 26 30 - - -
25/02:00am - - - - - WSW 33 41 18 22 - - -
25/01:30am - - - - - WSW 43 50 23 27 - - -
25/01:00am - - - - - WSW 50 63 27 34 - - -
25/12:30am - - - - - WSW 52 74 28 40 - - -
25/12:29am - - - - - WSW 52 74 28 40 - - -
25/12:00am - - - - - WSW 54 69 29 37 - - -
 
Date/Time
EST
Temp
°C
App
Temp
°C
Dew
Point
°C
Rel
Hum
%
Delta-T
°C
Wind Press
QNH
hPa
Press
MSL
hPa
Rain since
9am
mm
Dir  Spd
km/h
Gust
km/h
Spd
kts
Gust
kts
24/11:30pm - - - - - WSW 56 78 30 42 - - -
24/11:00pm - - - - - WSW 54 72 29 39 - - -
24/10:57pm - - - - - WSW 54 72 29 39 - - -
24/10:30pm - - - - - WSW 48 63 26 34 - - -
24/10:00pm - - - - - WSW 46 63 25 34 - - -
24/09:30pm - - - - - WSW 44 67 24 36 - - -
24/09:10pm - - - - - WSW 43 63 23 34 - - -
24/09:00pm - - - - - W 43 57 23 31 - - -
24/08:30pm - - - - - WSW 41 50 22 27 - - -
24/08:00pm - - - - - WSW 50 59 27 32 - - -
24/07:30pm - - - - - WSW 32 43 17 23 - - -
24/07:00pm - - - - - W 35 41 19 22 - - -
24/06:30pm - - - - - W 39 50 21 27 - - -
24/06:19pm - - - - - W 37 56 20 30 - - -
24/06:00pm - - - - - W 37 48 20 26 - - -
24/05:30pm - - - - - WSW 28 37 15 20 - - -
24/05:00pm - - - - - W 37 48 20 26 - - -
24/04:30pm - - - - - W 30 37 16 20 - - -
24/04:00pm - - - - - WSW 32 48 17 26 - - -
24/03:58pm - - - - - W 30 46 16 25 - - -
24/03:30pm - - - - - WNW 30 37 16 20 - - -
24/03:00pm - - - - - W 28 32 15 17 - - -
24/02:30pm - - - - - W 26 33 14 18 - - -
24/02:00pm - - - - - W 30 44 16 24 - - -
24/01:30pm - - - - - W 37 44 20 24 - - -
24/01:00pm - - - - - W 33 43 18 23 - - -
24/12:30pm - - - - - WNW 30 37 16 20 - - -

Other Formats:

Comma delimited format used in spreadsheet applications
http://www.bom.gov.au/fwo/IDQ60801/IDQ60801.94590.axf

JavaScript Object Notation format (JSON) in row-major order
http://www.bom.gov.au/fwo/IDQ60801/IDQ60801.94590.json